sensor_id;sensor_type;location;lat;lon;timestamp;pressure;altitude;pressure_sealevel;temperature;humidity
9225;BME280;4647;48.072;11.616;2023-04-20T00:01:53;95149.19;;;4.28;86.10
9225;BME280;4647;48.072;11.616;2023-04-20T00:04:23;95144.69;;;4.43;85.56
9225;BME280;4647;48.072;11.616;2023-04-20T00:06:51;95140.88;;;4.48;85.56
9225;BME280;4647;48.072;11.616;2023-04-20T00:09:23;95135.16;;;4.49;85.19
9225;BME280;4647;48.072;11.616;2023-04-20T00:11:52;95140.06;;;4.37;85.67
9225;BME280;4647;48.072;11.616;2023-04-20T00:14:23;95143.09;;;4.31;85.43
9225;BME280;4647;48.072;11.616;2023-04-20T00:16:51;95127.00;;;4.31;85.53
9225;BME280;4647;48.072;11.616;2023-04-20T00:19:20;95125.38;;;4.20;85.85
9225;BME280;4647;48.072;11.616;2023-04-20T00:21:48;95121.16;;;4.22;86.12
9225;BME280;4647;48.072;11.616;2023-04-20T00:24:17;95118.59;;;4.33;85.79
9225;BME280;4647;48.072;11.616;2023-04-20T00:26:46;95115.59;;;4.45;85.48
9225;BME280;4647;48.072;11.616;2023-04-20T00:29:14;95115.53;;;4.35;85.36
9225;BME280;4647;48.072;11.616;2023-04-20T00:31:45;95112.06;;;4.30;85.47
9225;BME280;4647;48.072;11.616;2023-04-20T00:34:13;95096.00;;;4.38;85.03
9225;BME280;4647;48.072;11.616;2023-04-20T00:36:43;95085.22;;;4.27;85.01
9225;BME280;4647;48.072;11.616;2023-04-20T00:39:11;95094.44;;;4.29;85.30
9225;BME280;4647;48.072;11.616;2023-04-20T00:41:40;95086.75;;;4.28;85.47
9225;BME280;4647;48.072;11.616;2023-04-20T00:44:09;95090.63;;;4.38;85.56
9225;BME280;4647;48.072;11.616;2023-04-20T00:46:38;95090.63;;;4.38;85.47
9225;BME280;4647;48.072;11.616;2023-04-20T00:49:10;95076.75;;;4.25;85.77
9225;BME280;4647;48.072;11.616;2023-04-20T00:51:38;95078.66;;;4.24;85.64
9225;BME280;4647;48.072;11.616;2023-04-20T00:54:07;95077.94;;;4.27;85.76
9225;BME280;4647;48.072;11.616;2023-04-20T00:56:37;95076.03;;;4.28;85.83
9225;BME280;4647;48.072;11.616;2023-04-20T00:59:05;95076.41;;;4.30;85.65
9225;BME280;4647;48.072;11.616;2023-04-20T01:01:34;95068.28;;;4.16;85.57
9225;BME280;4647;48.072;11.616;2023-04-20T01:04:03;95068.63;;;4.07;86.15
9225;BME280;4647;48.072;11.616;2023-04-20T01:06:34;95064.81;;;4.12;86.00
9225;BME280;4647;48.072;11.616;2023-04-20T01:09:03;95050.63;;;4.11;86.14
9225;BME280;4647;48.072;11.616;2023-04-20T01:11:31;95050.59;;;4.04;86.19
9225;BME280;4647;48.072;11.616;2023-04-20T01:13:59;95039.75;;;3.90;86.54
9225;BME280;4647;48.072;11.616;2023-04-20T01:16:28;95044.69;;;3.81;86.67
9225;BME280;4647;48.072;11.616;2023-04-20T01:18:59;95027.53;;;3.92;85.70
9225;BME280;4647;48.072;11.616;2023-04-20T01:21:28;95020.97;;;3.83;85.24
9225;BME280;4647;48.072;11.616;2023-04-20T01:23:59;95028.66;;;3.88;85.15
9225;BME280;4647;48.072;11.616;2023-04-20T01:26:28;95028.72;;;3.98;84.86
9225;BME280;4647;48.072;11.616;2023-04-20T01:28:56;95021.84;;;4.01;84.65
9225;BME280;4647;48.072;11.616;2023-04-20T01:31:24;95029.06;;;3.93;84.82
9225;BME280;4647;48.072;11.616;2023-04-20T01:33:53;95031.41;;;4.02;84.49
9225;BME280;4647;48.072;11.616;2023-04-20T01:36:21;95029.84;;;3.97;84.52
9225;BME280;4647;48.072;11.616;2023-04-20T01:38:51;95029.06;;;3.93;84.75
9225;BME280;4647;48.072;11.616;2023-04-20T01:41:22;95034.41;;;3.93;84.86
9225;BME280;4647;48.072;11.616;2023-04-20T01:43:51;95031.75;;;3.97;84.74
9225;BME280;4647;48.072;11.616;2023-04-20T01:46:19;95028.41;;;4.07;84.16
9225;BME280;4647;48.072;11.616;2023-04-20T01:48:48;95018.44;;;4.04;84.61
9225;BME280;4647;48.072;11.616;2023-04-20T01:51:16;95016.03;;;3.88;84.48
9225;BME280;4647;48.072;11.616;2023-04-20T01:53:45;95026.06;;;4.02;84.68
9225;BME280;4647;48.072;11.616;2023-04-20T01:56:13;95020.66;;;3.98;84.69
9225;BME280;4647;48.072;11.616;2023-04-20T01:58:44;95025.31;;;4.05;84.48
9225;BME280;4647;48.072;11.616;2023-04-20T02:01:12;95018.44;;;4.08;84.16
9225;BME280;4647;48.072;11.616;2023-04-20T02:03:41;95020.66;;;3.98;84.32
9225;BME280;4647;48.072;11.616;2023-04-20T02:06:10;95027.53;;;3.96;84.13
9225;BME280;4647;48.072;11.616;2023-04-20T02:08:38;95015.25;;;3.88;84.50
9225;BME280;4647;48.072;11.616;2023-04-20T02:11:07;95000.66;;;3.82;84.56
9225;BME280;4647;48.072;11.616;2023-04-20T02:13:35;95004.88;;;3.83;84.75
9225;BME280;4647;48.072;11.616;2023-04-20T02:16:07;95003.03;;;3.94;84.81
9225;BME280;4647;48.072;11.616;2023-04-20T02:18:36;95001.44;;;3.82;84.92
9225;BME280;4647;48.072;11.616;2023-04-20T02:21:05;95002.28;;;3.97;84.74
9225;BME280;4647;48.072;11.616;2023-04-20T02:23:33;94985.22;;;3.61;84.94
9225;BME280;4647;48.072;11.616;2023-04-20T02:26:02;95007.53;;;3.79;85.11
9225;BME280;4647;48.072;11.616;2023-04-20T02:28:30;95002.22;;;3.83;85.11
9225;BME280;4647;48.072;11.616;2023-04-20T02:30:59;95006.81;;;3.86;85.28
9225;BME280;4647;48.072;11.616;2023-04-20T02:33:30;95009.88;;;3.88;85.20
9225;BME280;4647;48.072;11.616;2023-04-20T02:35:58;94976.81;;;3.66;85.65
9225;BME280;4647;48.072;11.616;2023-04-20T02:38:27;94986.81;;;3.73;85.75
9225;BME280;4647;48.072;11.616;2023-04-20T02:40:56;94994.56;;;3.85;85.77
9225;BME280;4647;48.072;11.616;2023-04-20T02:43:24;94992.25;;;3.80;85.99
9225;BME280;4647;48.072;11.616;2023-04-20T02:45:52;94988.06;;;3.86;85.80
9225;BME280;4647;48.072;11.616;2023-04-20T02:48:21;94987.66;;;3.80;85.98
9225;BME280;4647;48.072;11.616;2023-04-20T02:50:53;94979.63;;;3.84;86.07
9225;BME280;4647;48.072;11.616;2023-04-20T02:53:22;94975.44;;;3.86;85.87
9225;BME280;4647;48.072;11.616;2023-04-20T02:55:50;94970.81;;;3.83;86.02
9225;BME280;4647;48.072;11.616;2023-04-20T02:58:18;94969.28;;;3.82;85.91
9225;BME280;4647;48.072;11.616;2023-04-20T03:00:47;94960.09;;;3.80;86.06
9225;BME280;4647;48.072;11.616;2023-04-20T03:03:15;94963.56;;;3.84;85.97
9225;BME280;4647;48.072;11.616;2023-04-20T03:05:45;94962.75;;;3.80;85.91
9225;BME280;4647;48.072;11.616;2023-04-20T03:08:16;94958.88;;;3.74;85.82
9225;BME280;4647;48.072;11.616;2023-04-20T03:10:45;94960.78;;;3.69;86.16
9225;BME280;4647;48.072;11.616;2023-04-20T03:13:13;94954.69;;;3.76;86.01
9225;BME280;4647;48.072;11.616;2023-04-20T03:15:42;94956.19;;;3.74;86.16
9225;BME280;4647;48.072;11.616;2023-04-20T03:18:11;94963.47;;;3.77;86.07
9225;BME280;4647;48.072;11.616;2023-04-20T03:20:39;94963.44;;;3.69;86.15
9225;BME280;4647;48.072;11.616;2023-04-20T03:23:07;94932.69;;;3.49;85.80
9225;BME280;4647;48.072;11.616;2023-04-20T03:25:39;94951.94;;;3.65;85.92
9225;BME280;4647;48.072;11.616;2023-04-20T03:28:08;94945.81;;;3.61;85.84
9225;BME280;4647;48.072;11.616;2023-04-20T03:30:36;94951.09;;;3.54;85.47
9225;BME280;4647;48.072;11.616;2023-04-20T03:33:04;94949.53;;;3.50;85.56
9225;BME280;4647;48.072;11.616;2023-04-20T03:35:33;94948.88;;;3.63;85.67
9225;BME280;4647;48.072;11.616;2023-04-20T03:38:03;94951.56;;;3.63;85.50
9225;BME280;4647;48.072;11.616;2023-04-20T03:40:32;94946.22;;;3.67;85.58
9225;BME280;4647;48.072;11.616;2023-04-20T03:43:03;94949.25;;;3.62;85.62
9225;BME280;4647;48.072;11.616;2023-04-20T03:45:31;94946.22;;;3.70;85.73
9225;BME280;4647;48.072;11.616;2023-04-20T03:48:00;94945.47;;;3.70;85.57
9225;BME280;4647;48.072;11.616;2023-04-20T03:50:28;94923.91;;;3.52;85.83
9225;BME280;4647;48.072;11.616;2023-04-20T03:52:57;94936.31;;;3.75;85.82
9225;BME280;4647;48.072;11.616;2023-04-20T03:55:25;94935.97;;;3.80;85.69
9225;BME280;4647;48.072;11.616;2023-04-20T03:57:53;94948.66;;;3.90;85.52
9225;BME280;4647;48.072;11.616;2023-04-20T04:00:25;94944.78;;;3.84;85.71
9225;BME280;4647;48.072;11.616;2023-04-20T04:02:53;94940.91;;;3.78;85.91
9225;BME280;4647;48.072;11.616;2023-04-20T04:05:23;94934.38;;;3.75;86.03
9225;BME280;4647;48.072;11.616;2023-04-20T04:07:51;94940.75;;;3.53;86.49
9225;BME280;4647;48.072;11.616;2023-04-20T04:10:20;94925.44;;;3.53;86.31
9225;BME280;4647;48.072;11.616;2023-04-20T04:12:49;94921.63;;;3.54;86.24
9225;BME280;4647;48.072;11.616;2023-04-20T04:15:17;94885.16;;;3.32;85.71
9225;BME280;4647;48.072;11.616;2023-04-20T04:17:49;94915.91;;;3.56;85.57
9225;BME280;4647;48.072;11.616;2023-04-20T04:20:18;94918.91;;;3.47;86.33
9225;BME280;4647;48.072;11.616;2023-04-20T04:22:46;94911.28;;;3.49;85.57
9225;BME280;4647;48.072;11.616;2023-04-20T04:25:16;94922.72;;;3.46;85.99
9225;BME280;4647;48.072;11.616;2023-04-20T04:27:47;94906.66;;;3.46;85.54
9225;BME280;4647;48.072;11.616;2023-04-20T04:30:16;94913.59;;;3.54;85.99
9225;BME280;4647;48.072;11.616;2023-04-20T04:32:44;94914.78;;;3.60;85.88
9225;BME280;4647;48.072;11.616;2023-04-20T04:35:16;94917.91;;;3.69;85.71
9225;BME280;4647;48.072;11.616;2023-04-20T04:37:45;94914.47;;;3.73;85.58
9225;BME280;4647;48.072;11.616;2023-04-20T04:40:15;94924.06;;;3.77;85.44
9225;BME280;4647;48.072;11.616;2023-04-20T04:42:43;94924.06;;;3.77;85.42
9225;BME280;4647;48.072;11.616;2023-04-20T04:45:13;94924.03;;;3.74;85.50
9225;BME280;4647;48.072;11.616;2023-04-20T04:47:42;94888.81;;;3.68;84.64
9225;BME280;4647;48.072;11.616;2023-04-20T04:50:11;94922.88;;;3.67;85.26
9225;BME280;4647;48.072;11.616;2023-04-20T04:52:42;94919.81;;;3.69;85.22
9225;BME280;4647;48.072;11.616;2023-04-20T04:55:10;94915.59;;;3.64;85.04
9225;BME280;4647;48.072;11.616;2023-04-20T04:57:39;94906.31;;;3.55;85.09
9225;BME280;4647;48.072;11.616;2023-04-20T05:00:08;94910.91;;;3.54;85.14
9225;BME280;4647;48.072;11.616;2023-04-20T05:02:37;94907.94;;;3.66;85.07
9225;BME280;4647;48.072;11.616;2023-04-20T05:05:07;94888.41;;;3.66;84.93
9225;BME280;4647;48.072;11.616;2023-04-20T05:07:37;94907.97;;;3.70;84.96
9225;BME280;4647;48.072;11.616;2023-04-20T05:10:08;94922.50;;;3.69;85.26
9225;BME280;4647;48.072;11.616;2023-04-20T05:12:37;94917.09;;;3.62;85.06
9225;BME280;4647;48.072;11.616;2023-04-20T05:15:07;94919.41;;;3.67;85.65
9225;BME280;4647;48.072;11.616;2023-04-20T05:17:36;94919.09;;;3.76;84.97
9225;BME280;4647;48.072;11.616;2023-04-20T05:20:06;94922.22;;;3.85;84.80
9225;BME280;4647;48.072;11.616;2023-04-20T05:22:35;94923.66;;;3.72;85.02
9225;BME280;4647;48.072;11.616;2023-04-20T05:25:04;94926.34;;;3.72;85.24
9225;BME280;4647;48.072;11.616;2023-04-20T05:27:35;94924.03;;;3.74;84.76
9225;BME280;4647;48.072;11.616;2023-04-20T05:30:05;94924.50;;;3.83;84.84
9225;BME280;4647;48.072;11.616;2023-04-20T05:32:34;94927.50;;;3.78;84.76
9225;BME280;4647;48.072;11.616;2023-04-20T05:35:03;94919.91;;;3.83;84.92
9225;BME280;4647;48.072;11.616;2023-04-20T05:37:32;94921.03;;;3.79;84.41
9225;BME280;4647;48.072;11.616;2023-04-20T05:40:00;94916.75;;;3.67;84.24
9225;BME280;4647;48.072;11.616;2023-04-20T05:42:29;94905.69;;;3.76;84.61
9225;BME280;4647;48.072;11.616;2023-04-20T05:45:00;94911.78;;;3.69;84.64
9225;BME280;4647;48.072;11.616;2023-04-20T05:47:29;94890.69;;;3.60;84.80
9225;BME280;4647;48.072;11.616;2023-04-20T05:49:58;94914.19;;;3.92;84.24
9225;BME280;4647;48.072;11.616;2023-04-20T05:52:26;94916.59;;;4.11;83.85
9225;BME280;4647;48.072;11.616;2023-04-20T05:54:55;94907.34;;;3.98;83.78
9225;BME280;4647;48.072;11.616;2023-04-20T05:57:23;94905.44;;;4.02;84.16
9225;BME280;4647;48.072;11.616;2023-04-20T05:59:52;94912.72;;;4.01;83.94
9225;BME280;4647;48.072;11.616;2023-04-20T06:02:23;94916.22;;;4.13;84.08
9225;BME280;4647;48.072;11.616;2023-04-20T06:04:52;94915.84;;;4.14;83.77
9225;BME280;4647;48.072;11.616;2023-04-20T06:07:21;94914.28;;;4.06;83.90
9225;BME280;4647;48.072;11.616;2023-04-20T06:09:49;94918.09;;;4.05;83.75
9225;BME280;4647;48.072;11.616;2023-04-20T06:12:17;94912.69;;;3.98;83.30
9225;BME280;4647;48.072;11.616;2023-04-20T06:14:49;94876.66;;;3.88;83.07
9225;BME280;4647;48.072;11.616;2023-04-20T06:17:17;94906.63;;;4.05;83.32
9225;BME280;4647;48.072;11.616;2023-04-20T06:19:48;94900.88;;;4.06;83.00
9225;BME280;4647;48.072;11.616;2023-04-20T06:22:17;94883.59;;;4.00;82.82
9225;BME280;4647;48.072;11.616;2023-04-20T06:24:45;94887.84;;;4.05;83.04
9225;BME280;4647;48.072;11.616;2023-04-20T06:27:14;94890.88;;;3.99;83.36
9225;BME280;4647;48.072;11.616;2023-04-20T06:29:42;94882.53;;;4.22;82.76
9225;BME280;4647;48.072;11.616;2023-04-20T06:32:10;94893.63;;;4.17;82.59
9225;BME280;4647;48.072;11.616;2023-04-20T06:34:41;94891.34;;;4.23;83.06
9225;BME280;4647;48.072;11.616;2023-04-20T06:37:14;94889.81;;;4.25;82.93
9225;BME280;4647;48.072;11.616;2023-04-20T06:39:43;94880.66;;;4.26;83.09
9225;BME280;4647;48.072;11.616;2023-04-20T06:42:11;94876.78;;;4.13;82.43
9225;BME280;4647;48.072;11.616;2023-04-20T06:44:44;94884.84;;;4.24;82.63
9225;BME280;4647;48.072;11.616;2023-04-20T06:47:13;94881.44;;;4.41;82.54
9225;BME280;4647;48.072;11.616;2023-04-20T06:49:41;94880.22;;;4.17;82.46
9225;BME280;4647;48.072;11.616;2023-04-20T06:52:10;94883.66;;;4.14;83.42
9225;BME280;4647;48.072;11.616;2023-04-20T06:54:41;94856.06;;;4.03;83.58
9225;BME280;4647;48.072;11.616;2023-04-20T06:57:09;94876.84;;;4.27;82.64
9225;BME280;4647;48.072;11.616;2023-04-20T06:59:38;94853.41;;;4.14;82.19
9225;BME280;4647;48.072;11.616;2023-04-20T07:02:06;94881.47;;;4.45;82.17
9225;BME280;4647;48.072;11.616;2023-04-20T07:04:36;94884.56;;;4.57;81.83
9225;BME280;4647;48.072;11.616;2023-04-20T07:07:05;94878.81;;;4.59;81.20
9225;BME280;4647;48.072;11.616;2023-04-20T07:09:34;94875.75;;;4.60;81.11
9225;BME280;4647;48.072;11.616;2023-04-20T07:12:05;94871.91;;;4.61;81.63
9225;BME280;4647;48.072;11.616;2023-04-20T07:14:35;94872.31;;;4.67;81.00
9225;BME280;4647;48.072;11.616;2023-04-20T07:17:04;94870.78;;;4.55;81.00
9225;BME280;4647;48.072;11.616;2023-04-20T07:19:32;94871.50;;;4.45;81.50
9225;BME280;4647;48.072;11.616;2023-04-20T07:22:01;94876.13;;;4.55;81.37
9225;BME280;4647;48.072;11.616;2023-04-20T07:24:30;94879.97;;;4.58;81.43
9225;BME280;4647;48.072;11.616;2023-04-20T07:26:59;94884.56;;;4.50;81.89
9225;BME280;4647;48.072;11.616;2023-04-20T07:29:30;94885.72;;;4.60;81.99
9225;BME280;4647;48.072;11.616;2023-04-20T07:31:58;94891.50;;;4.87;81.08
9225;BME280;4647;48.072;11.616;2023-04-20T07:34:26;94902.25;;;4.94;81.28
9225;BME280;4647;48.072;11.616;2023-04-20T07:36:57;94898.38;;;4.59;81.02
9225;BME280;4647;48.072;11.616;2023-04-20T07:39:25;94900.28;;;4.55;81.20
9225;BME280;4647;48.072;11.616;2023-04-20T07:41:55;94897.59;;;4.52;81.28
9225;BME280;4647;48.072;11.616;2023-04-20T07:44:24;94897.59;;;4.59;81.21
9225;BME280;4647;48.072;11.616;2023-04-20T07:46:55;94900.66;;;4.61;81.16
9225;BME280;4647;48.072;11.616;2023-04-20T07:49:25;94905.66;;;4.59;81.52
9225;BME280;4647;48.072;11.616;2023-04-20T07:51:53;94899.91;;;4.68;80.50
9225;BME280;4647;48.072;11.616;2023-04-20T07:54:22;94905.66;;;4.62;80.55
9225;BME280;4647;48.072;11.616;2023-04-20T07:56:51;94906.78;;;4.58;80.25
9225;BME280;4647;48.072;11.616;2023-04-20T07:59:19;94911.41;;;4.68;80.57
9225;BME280;4647;48.072;11.616;2023-04-20T08:01:48;94915.66;;;4.76;79.86
9225;BME280;4647;48.072;11.616;2023-04-20T08:04:19;94907.19;;;4.56;79.84
9225;BME280;4647;48.072;11.616;2023-04-20T08:06:47;94903.34;;;4.72;80.51
9225;BME280;4647;48.072;11.616;2023-04-20T08:09:16;94899.13;;;4.63;79.62
9225;BME280;4647;48.072;11.616;2023-04-20T08:11:45;94897.63;;;4.73;79.66
9225;BME280;4647;48.072;11.616;2023-04-20T08:14:14;94889.97;;;4.79;79.04
9225;BME280;4647;48.072;11.616;2023-04-20T08:16:42;94889.59;;;4.80;80.08
9225;BME280;4647;48.072;11.616;2023-04-20T08:19:11;94884.59;;;4.75;79.02
9225;BME280;4647;48.072;11.616;2023-04-20T08:21:43;94866.19;;;4.74;78.87
9225;BME280;4647;48.072;11.616;2023-04-20T08:24:13;94902.25;;;4.90;78.03
9225;BME280;4647;48.072;11.616;2023-04-20T08:26:42;94896.91;;;5.05;78.94
9225;BME280;4647;48.072;11.616;2023-04-20T08:29:15;94891.50;;;5.19;78.38
9225;BME280;4647;48.072;11.616;2023-04-20T08:31:44;94891.53;;;5.05;78.37
9225;BME280;4647;48.072;11.616;2023-04-20T08:34:12;94899.19;;;4.99;78.76
9225;BME280;4647;48.072;11.616;2023-04-20T08:36:43;94873.09;;;4.75;80.41
9225;BME280;4647;48.072;11.616;2023-04-20T08:39:13;94894.56;;;4.78;80.12
9225;BME280;4647;48.072;11.616;2023-04-20T08:41:42;94884.59;;;4.89;79.91
9225;BME280;4647;48.072;11.616;2023-04-20T08:44:11;94882.31;;;4.84;79.97
9225;BME280;4647;48.072;11.616;2023-04-20T08:46:40;94892.66;;;4.75;80.94
9225;BME280;4647;48.072;11.616;2023-04-20T08:49:14;94871.53;;;4.63;81.41
9225;BME280;4647;48.072;11.616;2023-04-20T08:51:46;94886.91;;;4.73;80.55
9225;BME280;4647;48.072;11.616;2023-04-20T08:54:15;94897.59;;;4.62;80.66
9225;BME280;4647;48.072;11.616;2023-04-20T08:56:46;94891.47;;;4.66;81.34
9225;BME280;4647;48.072;11.616;2023-04-20T08:59:17;94889.16;;;4.64;81.07
9225;BME280;4647;48.072;11.616;2023-04-20T09:01:48;94890.69;;;4.65;81.25
9225;BME280;4647;48.072;11.616;2023-04-20T09:04:18;94898.03;;;4.82;80.72
9225;BME280;4647;48.072;11.616;2023-04-20T09:06:52;94882.22;;;4.38;80.69
9225;BME280;4647;48.072;11.616;2023-04-20T09:09:23;94902.63;;;4.82;80.29
9225;BME280;4647;48.072;11.616;2023-04-20T09:11:59;94900.31;;;4.87;80.81
9225;BME280;4647;48.072;11.616;2023-04-20T09:14:40;94906.47;;;5.06;79.73
9225;BME280;4647;48.072;11.616;2023-04-20T09:17:09;94918.38;;;5.01;79.70
9225;BME280;4647;48.072;11.616;2023-04-20T09:19:39;94898.03;;;4.86;79.54
9225;BME280;4647;48.072;11.616;2023-04-20T09:22:10;94915.28;;;4.74;80.73
9225;BME280;4647;48.072;11.616;2023-04-20T09:24:39;94909.09;;;4.63;81.12
9225;BME280;4647;48.072;11.616;2023-04-20T09:27:14;94907.22;;;4.81;80.54
9225;BME280;4647;48.072;11.616;2023-04-20T09:29:44;94914.13;;;4.97;80.28
9225;BME280;4647;48.072;11.616;2023-04-20T09:32:20;94901.09;;;4.84;80.04
9225;BME280;4647;48.072;11.616;2023-04-20T09:34:49;94902.25;;;4.83;80.13
9225;BME280;4647;48.072;11.616;2023-04-20T09:37:20;94899.16;;;4.96;79.69
9225;BME280;4647;48.072;11.616;2023-04-20T09:39:49;94904.56;;;4.99;79.43
9225;BME280;4647;48.072;11.616;2023-04-20T09:42:19;94889.22;;;4.89;79.43
9225;BME280;4647;48.072;11.616;2023-04-20T09:44:49;94897.28;;;5.07;79.22
9225;BME280;4647;48.072;11.616;2023-04-20T09:47:19;94894.19;;;5.19;78.72
9225;BME280;4647;48.072;11.616;2023-04-20T09:49:51;94886.13;;;5.40;78.16
9225;BME280;4647;48.072;11.616;2023-04-20T09:52:23;94888.41;;;5.70;77.20
9225;BME280;4647;48.072;11.616;2023-04-20T09:54:53;94884.94;;;5.63;77.09
9225;BME280;4647;48.072;11.616;2023-04-20T09:57:24;94886.09;;;5.65;76.54
9225;BME280;4647;48.072;11.616;2023-04-20T09:59:53;94880.72;;;5.72;76.02
9225;BME280;4647;48.072;11.616;2023-04-20T10:02:24;94884.59;;;5.50;77.28
9225;BME280;4647;48.072;11.616;2023-04-20T10:04:54;94886.16;;;5.33;77.76
9225;BME280;4647;48.072;11.616;2023-04-20T10:07:26;94880.31;;;5.67;77.52
9225;BME280;4647;48.072;11.616;2023-04-20T10:10:03;94887.25;;;5.75;77.39
9225;BME280;4647;48.072;11.616;2023-04-20T10:12:32;94882.22;;;5.98;76.64
9225;BME280;4647;48.072;11.616;2023-04-20T10:15:01;94882.91;;;6.17;75.63
9225;BME280;4647;48.072;11.616;2023-04-20T10:17:30;94893.69;;;6.17;75.19
9225;BME280;4647;48.072;11.616;2023-04-20T10:19:59;94890.59;;;6.14;75.17
9225;BME280;4647;48.072;11.616;2023-04-20T10:22:31;94889.09;;;6.03;75.72
9225;BME280;4647;48.072;11.616;2023-04-20T10:25:00;94881.41;;;6.05;75.33
9225;BME280;4647;48.072;11.616;2023-04-20T10:27:29;94885.22;;;6.14;74.72
9225;BME280;4647;48.072;11.616;2023-04-20T10:30:07;94879.47;;;6.09;75.16
9225;BME280;4647;48.072;11.616;2023-04-20T10:32:36;94880.97;;;6.13;74.65
9225;BME280;4647;48.072;11.616;2023-04-20T10:35:06;94881.75;;;6.18;74.27
9225;BME280;4647;48.072;11.616;2023-04-20T10:37:46;94867.09;;;6.29;73.53
9225;BME280;4647;48.072;11.616;2023-04-20T10:40:16;94855.13;;;6.44;73.03
9225;BME280;4647;48.072;11.616;2023-04-20T10:42:45;94858.59;;;6.41;73.49
9225;BME280;4647;48.072;11.616;2023-04-20T10:45:14;94868.00;;;6.74;72.76
9225;BME280;4647;48.072;11.616;2023-04-20T10:47:42;94862.03;;;6.42;73.54
9225;BME280;4647;48.072;11.616;2023-04-20T10:50:13;94861.94;;;6.60;73.11
9225;BME280;4647;48.072;11.616;2023-04-20T10:52:45;94858.66;;;6.93;71.99
9225;BME280;4647;48.072;11.616;2023-04-20T10:55:18;94846.81;;;7.28;71.94
9225;BME280;4647;48.072;11.616;2023-04-20T10:57:47;94848.59;;;7.83;68.87
9225;BME280;4647;48.072;11.616;2023-04-20T11:00:16;94847.63;;;8.00;67.56
9225;BME280;4647;48.072;11.616;2023-04-20T11:02:50;94850.63;;;7.31;70.61
9225;BME280;4647;48.072;11.616;2023-04-20T11:05:19;94834.38;;;6.97;71.04
9225;BME280;4647;48.072;11.616;2023-04-20T11:07:55;94828.13;;;7.11;70.97
9225;BME280;4647;48.072;11.616;2023-04-20T11:10:36;94828.06;;;7.55;70.38
9225;BME280;4647;48.072;11.616;2023-04-20T11:13:05;94829.31;;;7.47;69.50
9225;BME280;4647;48.072;11.616;2023-04-20T11:15:34;94810.00;;;7.52;68.83
9225;BME280;4647;48.072;11.616;2023-04-20T11:18:06;94821.63;;;7.46;69.63
9225;BME280;4647;48.072;11.616;2023-04-20T11:20:35;94829.44;;;7.36;70.40
9225;BME280;4647;48.072;11.616;2023-04-20T11:23:06;94831.69;;;6.97;71.56
9225;BME280;4647;48.072;11.616;2023-04-20T11:25:34;94827.97;;;6.80;72.75
9225;BME280;4647;48.072;11.616;2023-04-20T11:28:07;94819.91;;;6.76;73.10
9225;BME280;4647;48.072;11.616;2023-04-20T11:30:39;94818.22;;;6.45;74.46
9225;BME280;4647;48.072;11.616;2023-04-20T11:33:08;94798.78;;;6.16;74.77
9225;BME280;4647;48.072;11.616;2023-04-20T11:35:41;94820.47;;;6.50;74.71
9225;BME280;4647;48.072;11.616;2023-04-20T11:38:12;94821.88;;;6.72;74.46
9225;BME280;4647;48.072;11.616;2023-04-20T11:40:43;94811.91;;;6.62;74.58
9225;BME280;4647;48.072;11.616;2023-04-20T11:43:11;94808.72;;;6.82;74.10
9225;BME280;4647;48.072;11.616;2023-04-20T11:45:39;94819.09;;;6.87;73.56
9225;BME280;4647;48.072;11.616;2023-04-20T11:48:08;94796.25;;;7.02;72.61
9225;BME280;4647;48.072;11.616;2023-04-20T11:50:37;94803.88;;;7.11;71.98
9225;BME280;4647;48.072;11.616;2023-04-20T11:53:05;94802.53;;;6.85;71.80
9225;BME280;4647;48.072;11.616;2023-04-20T11:55:37;94805.19;;;6.92;72.00
9225;BME280;4647;48.072;11.616;2023-04-20T11:58:06;94801.25;;;7.00;72.31
9225;BME280;4647;48.072;11.616;2023-04-20T12:00:34;94800.22;;;6.87;72.14
9225;BME280;4647;48.072;11.616;2023-04-20T12:03:03;94796.84;;;7.20;71.51
9225;BME280;4647;48.072;11.616;2023-04-20T12:05:31;94796.88;;;7.54;70.67
9225;BME280;4647;48.072;11.616;2023-04-20T12:07:59;94794.56;;;7.19;71.35
9225;BME280;4647;48.072;11.616;2023-04-20T12:10:28;94810.09;;;7.00;72.13
9225;BME280;4647;48.072;11.616;2023-04-20T12:12:59;94811.56;;;6.60;73.56
9225;BME280;4647;48.072;11.616;2023-04-20T12:15:28;94802.34;;;6.58;74.19
9225;BME280;4647;48.072;11.616;2023-04-20T12:17:56;94808.53;;;6.55;73.91
9225;BME280;4647;48.072;11.616;2023-04-20T12:20:25;94809.19;;;6.69;73.96
9225;BME280;4647;48.072;11.616;2023-04-20T12:22:53;94803.69;;;7.28;72.49
9225;BME280;4647;48.072;11.616;2023-04-20T12:25:22;94792.63;;;7.57;71.40
9225;BME280;4647;48.072;11.616;2023-04-20T12:27:50;94796.41;;;7.25;71.46
9225;BME280;4647;48.072;11.616;2023-04-20T12:30:21;94781.59;;;7.44;70.59
9225;BME280;4647;48.072;11.616;2023-04-20T12:32:50;94784.56;;;7.53;70.62
9225;BME280;4647;48.072;11.616;2023-04-20T12:35:18;94774.53;;;7.57;70.84
9225;BME280;4647;48.072;11.616;2023-04-20T12:37:47;94774.97;;;7.52;70.57
9225;BME280;4647;48.072;11.616;2023-04-20T12:40:15;94777.97;;;7.61;70.29
9225;BME280;4647;48.072;11.616;2023-04-20T12:42:43;94776.34;;;7.30;71.43
9225;BME280;4647;48.072;11.616;2023-04-20T12:45:12;94778.09;;;7.47;71.03
9225;BME280;4647;48.072;11.616;2023-04-20T12:47:43;94788.19;;;7.39;71.15
9225;BME280;4647;48.072;11.616;2023-04-20T12:50:11;94777.91;;;7.27;72.04
9225;BME280;4647;48.072;11.616;2023-04-20T12:52:40;94773.78;;;7.19;72.48
9225;BME280;4647;48.072;11.616;2023-04-20T12:55:08;94773.41;;;7.17;72.70
9225;BME280;4647;48.072;11.616;2023-04-20T12:57:38;94743.78;;;7.17;72.22
9225;BME280;4647;48.072;11.616;2023-04-20T13:00:09;94766.41;;;7.61;71.67
9225;BME280;4647;48.072;11.616;2023-04-20T13:02:37;94769.78;;;7.68;71.59
9225;BME280;4647;48.072;11.616;2023-04-20T13:05:09;94765.00;;;7.80;70.15
9225;BME280;4647;48.072;11.616;2023-04-20T13:07:38;94773.72;;;7.94;70.07
9225;BME280;4647;48.072;11.616;2023-04-20T13:10:07;94772.34;;;7.79;70.53
9225;BME280;4647;48.072;11.616;2023-04-20T13:12:36;94776.16;;;7.85;70.41
9225;BME280;4647;48.072;11.616;2023-04-20T13:15:06;94770.78;;;7.82;70.48
9225;BME280;4647;48.072;11.616;2023-04-20T13:17:35;94771.78;;;7.95;70.09
9225;BME280;4647;48.072;11.616;2023-04-20T13:20:05;94770.31;;;8.17;70.02
9225;BME280;4647;48.072;11.616;2023-04-20T13:22:36;94763.28;;;8.23;69.31
9225;BME280;4647;48.072;11.616;2023-04-20T13:25:05;94766.47;;;8.18;69.43
9225;BME280;4647;48.072;11.616;2023-04-20T13:27:34;94749.31;;;8.59;68.07
9225;BME280;4647;48.072;11.616;2023-04-20T13:30:03;94726.09;;;8.11;68.32
9225;BME280;4647;48.072;11.616;2023-04-20T13:32:33;94730.72;;;8.11;69.22
9225;BME280;4647;48.072;11.616;2023-04-20T13:35:01;94733.88;;;8.32;69.03